Time;durP1;ratioP1;P1;durP2;ratioP2;P2;SDS_P1;SDS_P2;PMS_P1;PMS_P2;Temp;Humidity;BMP_temperature;BMP_pressure;BME280_temperature;BME280_humidity;BME280_pressure;Samples;Min_cycle;Max_cycle;Signal;HPM_P1;HPM_P2
2022/06/11 00:02:04;;;;;;;6.30;2.70;;;;;;;13.35;100.00;96833.78;5018892;28;20099;-79
2022/06/11 00:04:41;;;;;;;7.93;3.07;;;;;;;13.23;100.00;96835.03;5004581;28;20040;-80
2022/06/11 00:07:14;;;;;;;5.07;2.43;;;;;;;13.24;100.00;96839.34;5008684;28;20036;-79
2022/06/11 00:09:41;;;;;;;6.97;2.65;;;;;;;13.25;100.00;96838.38;5013210;28;20034;-79
2022/06/11 00:12:09;;;;;;;6.83;2.87;;;;;;;13.28;100.00;96834.56;4994509;28;20080;-79
2022/06/11 00:14:35;;;;;;;5.40;2.73;;;;;;;13.35;100.00;96830.31;5040618;28;20036;-80
2022/06/11 00:17:03;;;;;;;7.83;3.10;;;;;;;13.37;100.00;96836.25;5038308;28;20029;-79
2022/06/11 00:19:30;;;;;;;5.50;3.20;;;;;;;13.40;100.00;96836.75;5021477;28;20033;-79
2022/06/11 00:21:57;;;;;;;10.07;3.53;;;;;;;13.38;100.00;96837.91;5021439;28;20036;-79
2022/06/11 00:24:24;;;;;;;6.30;3.20;;;;;;;13.29;100.00;96836.25;5005322;28;20034;-79
2022/06/11 00:26:51;;;;;;;5.73;2.70;;;;;;;13.33;100.00;96835.75;5016454;28;20041;-79
2022/06/11 00:29:18;;;;;;;7.57;3.47;;;;;;;13.25;100.00;96834.94;5016803;28;20041;-82
2022/06/11 00:31:45;;;;;;;9.80;4.40;;;;;;;13.15;100.00;96840.31;5030029;28;20148;-80
2022/06/11 00:34:12;;;;;;;8.93;3.57;;;;;;;13.13;100.00;96840.47;5028188;28;20060;-79
2022/06/11 00:36:38;;;;;;;7.70;3.70;;;;;;;13.17;100.00;96835.69;5018861;28;20079;-79
2022/06/11 00:39:06;;;;;;;8.40;3.90;;;;;;;13.16;100.00;96836.69;5025007;28;20389;-79
2022/06/11 00:41:32;;;;;;;4.90;3.03;;;;;;;13.23;100.00;96834.22;5009298;28;20061;-79
2022/06/11 00:43:58;;;;;;;8.30;3.27;;;;;;;13.23;100.00;96832.41;5011542;28;20041;-80
2022/06/11 00:46:36;;;;;;;6.20;3.63;;;;;;;13.12;100.00;96832.72;5009022;28;20034;-80
2022/06/11 00:49:08;;;;;;;4.47;2.60;;;;;;;13.03;100.00;96834.47;4999500;28;20041;-80
2022/06/11 00:51:34;;;;;;;10.77;3.00;;;;;;;12.94;100.00;96831.00;5026610;28;20038;-80
2022/06/11 00:54:14;;;;;;;6.37;3.20;;;;;;;12.87;100.00;96829.97;5024343;28;20034;-80
2022/06/11 00:56:50;;;;;;;6.03;2.93;;;;;;;12.77;100.00;96831.91;5022348;28;20025;-79
2022/06/11 00:59:21;;;;;;;7.37;3.30;;;;;;;12.74;100.00;96829.56;5004337;28;20084;-80
2022/06/11 01:01:48;;;;;;;5.60;3.10;;;;;;;12.73;100.00;96827.91;5021325;28;20033;-80
2022/06/11 01:04:32;;;;;;;6.63;3.10;;;;;;;12.66;100.00;96822.44;5017979;28;20018;-80
2022/06/11 01:07:09;;;;;;;6.00;2.87;;;;;;;12.60;100.00;96831.00;5010906;28;20033;-80
2022/06/11 01:09:35;;;;;;;6.57;3.03;;;;;;;12.63;100.00;96835.13;5009575;28;20041;-80
2022/06/11 01:12:28;;;;;;;7.83;3.00;;;;;;;12.66;100.00;96833.00;5021754;28;20431;-80
2022/06/11 01:15:12;;;;;;;6.03;2.58;;;;;;;12.70;100.00;96828.22;5010823;28;20532;-80
2022/06/11 01:17:45;;;;;;;8.23;2.50;;;;;;;12.76;100.00;96819.69;5002149;28;20124;-79
2022/06/11 01:20:39;;;;;;;7.13;3.40;;;;;;;12.67;100.00;96828.56;5000051;28;20592;-80
2022/06/11 01:23:42;;;;;;;4.93;2.88;;;;;;;12.73;100.00;96825.28;5000803;28;20503;-80
2022/06/11 01:26:11;;;;;;;8.40;3.65;;;;;;;12.67;100.00;96824.09;5032410;28;20034;-79
2022/06/11 01:29:11;;;;;;;6.60;2.60;;;;;;;12.55;100.00;96824.56;5024299;28;20041;-79
2022/06/11 01:31:49;;;;;;;7.53;2.50;;;;;;;12.48;100.00;96825.16;5019124;28;20038;-79
2022/06/11 01:34:31;;;;;;;5.93;2.90;;;;;;;12.34;100.00;96817.00;5009751;28;20037;-79
2022/06/11 01:37:04;;;;;;;5.17;2.57;;;;;;;12.29;100.00;96825.38;5024933;28;20037;-80
2022/06/11 01:39:45;;;;;;;6.90;2.92;;;;;;;12.23;100.00;96824.19;5030272;28;20041;-79
2022/06/11 01:42:34;;;;;;;7.20;2.77;;;;;;;12.13;100.00;96820.00;5024917;28;20436;-79
2022/06/11 01:45:26;;;;;;;9.20;3.20;;;;;;;12.14;100.00;96824.28;4998666;28;20034;-79
2022/06/11 01:47:53;;;;;;;6.00;3.20;;;;;;;12.13;100.00;96827.91;5007089;28;20060;-79
2022/06/11 01:50:22;;;;;;;6.80;3.07;;;;;;;12.15;100.00;96825.94;5025319;28;20116;-81
2022/06/11 01:53:14;;;;;;;7.90;2.80;;;;;;;12.17;100.00;96823.97;5009145;28;20066;-79
2022/06/11 01:55:46;;;;;;;6.07;2.43;;;;;;;12.13;100.00;96820.00;4998079;28;20515;-79
2022/06/11 01:58:35;;;;;;;8.50;2.80;;;;;;;12.08;100.00;96822.28;5010972;28;20124;-79
2022/06/11 02:01:19;;;;;;;8.60;3.40;;;;;;;12.18;100.00;96815.91;5001323;28;20437;-79
2022/06/11 02:04:09;;;;;;;8.43;2.80;;;;;;;12.20;100.00;96818.38;5030430;28;20046;-79
2022/06/11 02:06:39;;;;;;;5.83;2.80;;;;;;;12.24;100.00;96823.22;5060528;28;20041;-79
2022/06/11 02:09:33;;;;;;;6.27;3.00;;;;;;;12.23;100.00;96823.34;5032413;28;20033;-79
2022/06/11 02:12:34;;;;;;;7.90;3.27;;;;;;;12.31;100.00;96812.88;5000545;28;20444;-79
2022/06/11 02:15:11;;;;;;;5.50;2.70;;;;;;;12.24;100.00;96827.66;5007283;28;20173;-80
2022/06/11 02:17:41;;;;;;;8.67;2.70;;;;;;;12.20;100.00;96823.66;5009890;28;20033;-78
2022/06/11 02:20:17;;;;;;;6.33;2.83;;;;;;;12.11;100.00;96822.81;5017979;28;20041;-80
2022/06/11 02:22:52;;;;;;;6.33;3.03;;;;;;;12.02;100.00;96826.34;5009154;28;20048;-79
2022/06/11 02:25:26;;;;;;;9.07;3.03;;;;;;;11.98;100.00;96823.19;5020980;28;20120;-78
2022/06/11 02:27:58;;;;;;;7.53;2.90;;;;;;;11.87;100.00;96826.09;5027852;28;20026;-80
2022/06/11 02:30:27;;;;;;;5.47;2.67;;;;;;;11.89;100.00;96824.09;5014433;28;20038;-79
2022/06/11 02:32:53;;;;;;;5.43;2.50;;;;;;;11.84;100.00;96826.38;5042152;28;20128;-79
2022/06/11 02:35:42;;;;;;;7.30;2.93;;;;;;;11.72;100.00;96827.56;5028668;28;20037;-79
2022/06/11 02:38:13;;;;;;;5.77;2.87;;;;;;;11.68;100.00;96834.13;5003355;28;20038;-79
2022/06/11 02:40:53;;;;;;;9.80;2.90;;;;;;;11.68;100.00;96828.84;5036041;28;20045;-78
2022/06/11 02:43:20;;;;;;;5.97;3.03;;;;;;;11.60;100.00;96834.84;5026774;28;20083;-79
2022/06/11 02:45:46;;;;;;;7.00;3.30;;;;;;;11.60;100.00;96832.22;5030594;28;20026;-79
2022/06/11 02:48:13;;;;;;;6.67;3.03;;;;;;;11.71;100.00;96828.56;5024580;28;20042;-80
2022/06/11 02:50:42;;;;;;;4.60;3.13;;;;;;;11.72;100.00;96835.47;5009281;28;20438;-79
2022/06/11 02:53:09;;;;;;;9.17;3.40;;;;;;;11.71;100.00;96832.00;5030395;28;20483;-79
2022/06/11 02:55:37;;;;;;;6.60;3.13;;;;;;;11.65;100.00;96837.06;5041926;28;20029;-80
2022/06/11 02:58:05;;;;;;;9.87;4.00;;;;;;;11.60;100.00;96834.03;5022088;28;20063;-79
2022/06/11 03:00:35;;;;;;;8.97;4.30;;;;;;;11.60;100.00;96834.03;5018227;28;20041;-79
2022/06/11 03:03:01;;;;;;;8.43;3.70;;;;;;;11.67;100.00;96829.81;5023278;28;20037;-79
2022/06/11 03:05:30;;;;;;;6.53;3.17;;;;;;;11.63;100.00;96831.09;5000476;28;20049;-79
2022/06/11 03:07:58;;;;;;;5.87;3.13;;;;;;;11.59;100.00;96840.28;5009707;28;20029;-79
2022/06/11 03:10:24;;;;;;;6.50;3.23;;;;;;;11.67;100.00;96843.84;5017673;28;20029;-79
2022/06/11 03:12:51;;;;;;;8.40;3.13;;;;;;;11.71;100.00;96841.72;5031152;28;20091;-79
2022/06/11 03:15:17;;;;;;;7.27;3.63;;;;;;;11.76;100.00;96840.28;5034214;28;20034;-79
2022/06/11 03:17:45;;;;;;;4.83;2.83;;;;;;;11.74;100.00;96846.69;5004575;28;20038;-79
2022/06/11 03:20:13;;;;;;;4.83;3.13;;;;;;;11.78;100.00;96842.78;5015687;28;20093;-79
2022/06/11 03:22:39;;;;;;;5.60;3.50;;;;;;;11.77;100.00;96849.84;5019685;28;20053;-79
2022/06/11 03:25:06;;;;;;;10.87;3.90;;;;;;;11.78;100.00;96848.03;5023802;28;20065;-79
2022/06/11 03:27:32;;;;;;;10.37;3.73;;;;;;;11.77;100.00;96849.03;5008179;28;20503;-79
2022/06/11 03:29:57;;;;;;;6.03;3.20;;;;;;;11.68;100.00;96855.19;5022838;28;20033;-79
2022/06/11 03:32:23;;;;;;;5.63;3.17;;;;;;;11.60;100.00;96849.84;5012795;28;20045;-79
2022/06/11 03:34:49;;;;;;;6.37;3.37;;;;;;;11.63;100.00;96854.81;5031559;28;20048;-79
2022/06/11 03:37:15;;;;;;;6.13;3.27;;;;;;;11.73;100.00;96856.38;5026824;28;20356;-79
2022/06/11 03:39:41;;;;;;;4.80;3.00;;;;;;;11.88;100.00;96853.25;5041706;28;20622;-79
2022/06/11 03:42:08;;;;;;;5.80;3.17;;;;;;;11.84;100.00;96858.00;5023319;28;20044;-79
2022/06/11 03:44:35;;;;;;;7.23;3.03;;;;;;;11.80;100.00;96864.50;5030454;28;20030;-79
2022/06/11 03:47:02;;;;;;;9.13;2.80;;;;;;;11.73;100.00;96855.56;5022099;28;20017;-79
2022/06/11 03:49:27;;;;;;;5.40;2.90;;;;;;;11.79;100.00;96857.59;5020148;28;20411;-80
2022/06/11 03:51:54;;;;;;;8.33;3.27;;;;;;;11.79;100.00;96866.31;5019814;28;20034;-79
2022/06/11 03:54:20;;;;;;;6.03;3.20;;;;;;;11.90;100.00;96854.75;5026000;28;20025;-79
2022/06/11 03:56:47;;;;;;;6.17;2.90;;;;;;;11.92;100.00;96849.34;5007102;28;20117;-79
2022/06/11 03:59:14;;;;;;;6.30;3.07;;;;;;;11.98;100.00;96854.81;5011717;28;20025;-79
2022/06/11 04:01:41;;;;;;;7.03;2.93;;;;;;;12.00;100.00;96858.16;5026696;28;20101;-79
2022/06/11 04:04:09;;;;;;;9.57;3.03;;;;;;;11.98;100.00;96860.09;5037210;28;20044;-79
2022/06/11 04:06:40;;;;;;;4.80;2.90;;;;;;;12.11;100.00;96853.63;5024930;28;20034;-79
2022/06/11 04:09:09;;;;;;;4.00;2.60;;;;;;;12.17;100.00;96859.09;5034991;28;20037;-80
2022/06/11 04:11:36;;;;;;;5.83;2.70;;;;;;;12.20;100.00;96860.59;5018209;28;20529;-80
2022/06/11 04:14:01;;;;;;;6.07;2.60;;;;;;;12.29;100.00;96866.75;5004480;28;20064;-79
2022/06/11 04:16:31;;;;;;;4.13;2.57;;;;;;;12.32;100.00;96872.53;5036785;28;20043;-79
2022/06/11 04:18:59;;;;;;;8.77;2.90;;;;;;;12.36;100.00;96868.59;5020339;28;20033;-79
2022/06/11 04:21:26;;;;;;;4.43;2.60;;;;;;;12.48;100.00;96862.09;5021451;28;20030;-79
2022/06/11 04:23:54;;;;;;;6.60;2.67;;;;;;;12.60;100.00;96869.75;5040200;28;20042;-78
2022/06/11 04:26:25;;;;;;;3.73;2.50;;;;;;;12.63;100.00;96864.16;5047982;28;20071;-80
2022/06/11 04:28:51;;;;;;;4.97;2.57;;;;;;;12.72;100.00;96863.22;5022707;28;20109;-79
2022/06/11 04:31:17;;;;;;;5.73;2.93;;;;;;;12.80;100.00;96870.34;5012785;28;20065;-79
2022/06/11 04:33:44;;;;;;;6.03;2.63;;;;;;;12.92;100.00;96869.91;5018314;28;20041;-79
2022/06/11 04:36:11;;;;;;;4.90;2.70;;;;;;;12.93;100.00;96870.75;5026312;28;20764;-79
2022/06/11 04:38:38;;;;;;;5.70;2.97;;;;;;;13.07;100.00;96870.13;5021498;28;20030;-79
2022/06/11 04:41:05;;;;;;;6.80;3.20;;;;;;;13.09;100.00;96870.00;5026320;28;20077;-79
2022/06/11 04:43:31;;;;;;;5.50;2.93;;;;;;;13.20;100.00;96862.59;5017124;28;20037;-79
2022/06/11 04:45:57;;;;;;;5.67;3.03;;;;;;;13.28;100.00;96872.41;5015652;28;20504;-80
2022/06/11 04:48:22;;;;;;;6.33;3.10;;;;;;;13.42;100.00;96861.22;5007067;28;20037;-79
2022/06/11 04:50:48;;;;;;;4.80;2.40;;;;;;;13.63;100.00;96867.84;5020001;28;20034;-80
2022/06/11 04:53:13;;;;;;;5.83;2.90;;;;;;;13.57;100.00;96879.91;5006140;28;20045;-79
2022/06/11 04:55:40;;;;;;;7.43;3.07;;;;;;;13.50;100.00;96870.97;5000553;28;20108;-80
2022/06/11 04:58:07;;;;;;;8.27;3.20;;;;;;;13.61;100.00;96870.66;5033244;28;20069;-79
2022/06/11 05:00:33;;;;;;;4.87;3.03;;;;;;;13.69;100.00;96875.16;5015806;28;20471;-79
2022/06/11 05:03:00;;;;;;;5.33;2.63;;;;;;;13.89;100.00;96878.31;5012103;28;20026;-79
2022/06/11 05:05:26;;;;;;;4.87;2.67;;;;;;;14.00;100.00;96875.31;5032562;28;20715;-79
2022/06/11 05:07:52;;;;;;;6.73;2.50;;;;;;;14.21;100.00;96874.81;5024146;28;20041;-79
2022/06/11 05:10:21;;;;;;;5.57;2.80;;;;;;;14.43;100.00;96869.88;5006757;28;20243;-79
2022/06/11 05:12:47;;;;;;;4.63;2.50;;;;;;;14.57;100.00;96872.66;5040847;28;20071;-81
2022/06/11 05:15:13;;;;;;;4.37;2.67;;;;;;;14.74;100.00;96868.16;5023398;28;20050;-79
2022/06/11 05:17:40;;;;;;;7.30;2.93;;;;;;;14.87;100.00;96872.09;5020062;28;20034;-79
2022/06/11 05:20:08;;;;;;;8.23;2.90;;;;;;;15.06;100.00;96869.06;5019307;28;20571;-79
2022/06/11 05:22:34;;;;;;;4.90;2.83;;;;;;;15.20;100.00;96868.34;5004181;28;20105;-79
2022/06/11 05:25:00;;;;;;;6.10;2.70;;;;;;;15.47;100.00;96868.88;5016054;28;20053;-79
2022/06/11 05:27:27;;;;;;;9.10;3.13;;;;;;;15.75;100.00;96871.88;5005999;28;20101;-79
2022/06/11 05:30:07;;;;;;;5.70;2.80;;;;;;;15.85;100.00;96872.47;5020910;28;20060;-80
2022/06/11 05:32:35;;;;;;;4.67;2.90;;;;;;;16.01;100.00;96875.00;5027211;28;20094;-80
2022/06/11 05:35:03;;;;;;;5.07;3.20;;;;;;;16.08;100.00;96872.47;5020566;28;20129;-78
2022/06/11 05:37:29;;;;;;;7.43;2.97;;;;;;;16.26;100.00;96880.09;5038108;28;20026;-80
2022/06/11 05:39:55;;;;;;;7.03;2.60;;;;;;;16.74;100.00;96872.69;5021276;28;20061;-79
2022/06/11 05:42:23;;;;;;;6.93;3.00;;;;;;;16.87;100.00;96870.25;5049200;28;20064;-79
2022/06/11 05:44:50;;;;;;;4.93;2.83;;;;;;;17.14;100.00;96876.75;5027541;28;20480;-80
2022/06/11 05:47:23;;;;;;;8.57;2.72;;;;;;;17.30;100.00;96877.53;5004637;28;20044;-80
2022/06/11 05:49:53;;;;;;;5.28;2.35;;;;;;;17.57;100.00;96873.38;5008702;28;20168;-79
2022/06/11 05:52:26;;;;;;;3.95;2.28;;;;;;;17.75;100.00;96870.31;5004659;28;20533;-78
2022/06/11 05:54:52;;;;;;;;;;;;;;;17.74;100.00;96872.16;5019787;28;20038;-79
2022/06/11 05:57:26;;;;;;;4.03;2.20;;;;;;;18.32;100.00;96874.75;5025936;28;20004;-79
2022/06/11 05:59:58;;;;;;;5.90;2.42;;;;;;;18.21;100.00;96870.78;5000628;28;20511;-78
2022/06/11 06:02:25;;;;;;;5.15;2.33;;;;;;;18.50;100.00;96875.09;5009874;28;20040;-80
2022/06/11 06:04:51;;;;;;;5.97;2.80;;;;;;;18.98;99.09;96863.75;5026500;28;20030;-80
2022/06/11 06:07:16;;;;;;;4.55;2.33;;;;;;;19.25;93.48;96870.88;5021078;28;20519;-80
2022/06/11 06:09:42;;;;;;;4.30;2.20;;;;;;;19.54;100.00;96868.94;5023705;28;20038;-80
2022/06/11 06:12:08;;;;;;;4.18;2.28;;;;;;;19.93;97.90;96865.59;5004807;28;20133;-79
2022/06/11 06:14:34;;;;;;;3.42;2.10;;;;;;;20.34;98.45;96861.94;5020037;28;20101;-79
2022/06/11 06:17:00;;;;;;;6.75;1.92;;;;;;;20.22;92.52;96866.22;5002970;28;20036;-79
2022/06/11 06:19:26;;;;;;;4.43;2.17;;;;;;;20.37;97.04;96863.38;5003985;28;20042;-79
2022/06/11 06:21:52;;;;;;;6.63;2.80;;;;;;;20.81;91.99;96868.09;5002245;28;20884;-79
2022/06/11 06:24:17;;;;;;;4.55;2.60;;;;;;;21.09;93.69;96864.31;5023423;28;20068;-79
2022/06/11 06:26:43;;;;;;;5.95;2.30;;;;;;;21.55;85.91;96866.03;5038951;28;20045;-80
2022/06/11 06:29:09;;;;;;;4.03;2.05;;;;;;;21.75;85.88;96869.44;5018132;28;20075;-79
2022/06/11 06:31:35;;;;;;;3.28;1.98;;;;;;;22.34;83.00;96870.13;5027241;28;20036;-79
2022/06/11 06:34:01;;;;;;;3.05;1.75;;;;;;;22.24;67.20;96875.97;5007956;28;20025;-79
2022/06/11 06:36:28;;;;;;;3.47;1.83;;;;;;;22.46;62.00;96880.94;5006627;28;20044;-79
2022/06/11 06:38:54;;;;;;;3.97;2.28;;;;;;;23.13;61.39;96873.13;5040665;28;20030;-80
2022/06/11 06:41:21;;;;;;;5.72;1.90;;;;;;;22.92;58.59;96877.03;5030237;28;20035;-79
2022/06/11 06:43:48;;;;;;;4.38;1.73;;;;;;;23.35;54.32;96871.66;5030584;28;20037;-78
2022/06/11 06:46:15;;;;;;;2.85;1.70;;;;;;;23.19;54.74;96878.41;5020214;28;20489;-79
2022/06/11 06:48:43;;;;;;;6.82;1.90;;;;;;;23.32;53.95;96871.28;5037456;28;20145;-79
2022/06/11 06:51:10;;;;;;;4.82;1.60;;;;;;;23.91;51.58;96873.22;5040961;28;20073;-80
2022/06/11 06:53:37;;;;;;;4.45;1.60;;;;;;;23.27;51.28;96878.16;5027999;28;20096;-80
2022/06/11 06:56:03;;;;;;;4.32;1.95;;;;;;;23.72;49.91;96875.13;5027883;28;20026;-80
2022/06/11 06:58:29;;;;;;;2.70;1.35;;;;;;;24.20;48.91;96876.94;5014653;28;20177;-80
2022/06/11 07:00:55;;;;;;;3.63;1.52;;;;;;;24.22;49.62;96879.41;4999015;28;20069;-80
2022/06/11 07:03:21;;;;;;;5.78;1.88;;;;;;;23.63;53.57;96881.00;5011070;28;20121;-79
2022/06/11 07:05:48;;;;;;;3.72;1.60;;;;;;;24.51;56.09;96876.91;5016949;28;20034;-80
2022/06/11 07:08:16;;;;;;;3.42;1.85;;;;;;;25.19;56.62;96875.53;5032994;28;20041;-79
2022/06/11 07:10:53;;;;;;;3.20;1.80;;;;;;;25.67;54.62;96867.09;5028067;28;20041;-80
2022/06/11 07:13:20;;;;;;;3.28;1.55;;;;;;;26.58;52.45;96874.41;5030115;28;20045;-80
2022/06/11 07:15:48;;;;;;;3.90;1.70;;;;;;;26.84;51.46;96862.97;5006409;28;20026;-80
2022/06/11 07:18:20;;;;;;;5.13;1.50;;;;;;;26.06;45.51;96867.31;5019437;28;20598;-80
2022/06/11 07:20:47;;;;;;;4.43;1.40;;;;;;;26.19;43.96;96871.56;5039546;28;20030;-80
2022/06/11 07:23:21;;;;;;;4.28;1.70;;;;;;;26.61;43.83;96868.53;5015483;28;20028;-80
2022/06/11 07:25:50;;;;;;;6.60;1.80;;;;;;;26.69;43.65;96868.13;4994048;28;20066;-80
2022/06/11 07:28:24;;;;;;;2.65;1.50;;;;;;;27.32;42.29;96872.28;5004392;28;20109;-79
2022/06/11 07:30:50;;;;;;;3.45;1.60;;;;;;;27.60;41.82;96867.75;5022477;28;20099;-80
2022/06/11 07:33:21;;;;;;;3.28;1.50;;;;;;;26.82;41.48;96865.06;5020834;28;20033;-80
2022/06/11 07:35:48;;;;;;;4.75;1.70;;;;;;;28.15;40.56;96858.66;5005277;28;20061;-80
2022/06/11 07:38:15;;;;;;;3.33;1.70;;;;;;;28.15;40.02;96861.38;5019642;28;20050;-80
2022/06/11 07:40:41;;;;;;;4.65;1.70;;;;;;;27.48;42.50;96867.91;5022412;28;20482;-80
2022/06/11 07:43:08;;;;;;;3.50;1.67;;;;;;;27.73;40.46;96860.09;5020722;28;20513;-80
2022/06/11 07:45:36;;;;;;;4.22;1.80;;;;;;;27.16;41.84;96865.03;5005325;28;20010;-79
2022/06/11 07:48:02;;;;;;;4.38;1.98;;;;;;;27.85;40.67;96864.56;5032019;28;20037;-80
2022/06/11 07:50:31;;;;;;;3.80;1.67;;;;;;;27.19;40.83;96872.66;5055821;28;20032;-80
2022/06/11 07:52:58;;;;;;;3.92;1.92;;;;;;;27.89;39.59;96858.41;5040277;28;20037;-80
2022/06/11 07:55:24;;;;;;;1.92;1.38;;;;;;;27.57;39.75;96857.47;5016004;28;20101;-80
2022/06/11 07:57:51;;;;;;;3.13;1.45;;;;;;;27.36;41.42;96869.91;5011670;28;20087;-81
2022/06/11 08:00:24;;;;;;;4.88;1.75;;;;;;;28.29;37.79;96867.97;5011832;28;20034;-80
2022/06/11 08:02:50;;;;;;;2.33;1.30;;;;;;;28.10;38.91;96862.13;5016763;28;20048;-80
2022/06/11 08:05:16;;;;;;;2.92;1.30;;;;;;;28.64;37.27;96862.09;5015794;28;20426;-80
2022/06/11 08:07:42;;;;;;;2.92;1.48;;;;;;;29.43;35.35;96862.31;5002894;28;20030;-80
2022/06/11 08:10:09;;;;;;;3.08;1.33;;;;;;;28.69;37.15;96864.00;5011875;28;20041;-80
2022/06/11 08:12:35;;;;;;;3.35;1.42;;;;;;;28.43;37.92;96863.78;5012010;28;20034;-80
2022/06/11 08:15:01;;;;;;;3.43;1.20;;;;;;;29.08;36.57;96867.28;4965579;28;1340205;-80
2022/06/11 08:17:28;;;;;;;1.50;1.30;;;;;;;30.04;34.05;96855.19;5021699;28;20034;-80
2022/06/11 08:19:54;;;;;;;4.43;1.52;;;;;;;29.81;34.62;96859.22;5039523;28;20205;-81
2022/06/11 08:22:20;;;;;;;3.78;1.55;;;;;;;29.23;35.27;96861.13;5015571;28;20749;-81
2022/06/11 08:24:46;;;;;;;3.78;1.42;;;;;;;29.64;34.17;96865.94;5006591;28;20113;-81
2022/06/11 08:27:12;;;;;;;3.38;1.30;;;;;;;29.02;33.79;96872.94;5022228;28;20030;-81
2022/06/11 08:29:38;;;;;;;1.85;1.30;;;;;;;29.84;33.42;96871.41;5030076;28;20045;-81
2022/06/11 08:32:05;;;;;;;3.60;1.52;;;;;;;29.52;35.40;96868.84;5017402;28;20065;-82
2022/06/11 08:34:38;;;;;;;3.00;1.10;;;;;;;29.49;33.19;96866.66;5017207;28;20469;-82
2022/06/11 08:37:04;;;;;;;3.53;1.50;;;;;;;30.43;31.80;96870.19;5045025;28;20044;-82
2022/06/11 08:39:30;;;;;;;5.05;1.60;;;;;;;30.78;31.61;96869.41;5025833;28;20033;-82
2022/06/11 08:41:58;;;;;;;6.50;2.25;;;;;;;30.07;32.75;96870.94;5019354;28;20072;-82
2022/06/11 08:44:24;;;;;;;3.88;1.35;;;;;;;30.04;33.13;96865.22;5005674;28;20049;-82
2022/06/11 08:46:50;;;;;;;3.72;1.30;;;;;;;30.53;33.10;96860.16;5021482;28;20121;-82
2022/06/11 08:49:45;;;;;;;4.30;1.20;;;;;;;27.65;35.28;96867.84;5010060;28;20061;-82
2022/06/11 08:52:16;;;;;;;2.13;1.40;;;;;;;27.44;35.58;96877.59;5025061;28;20904;-81
2022/06/11 08:54:45;;;;;;;5.05;1.25;;;;;;;27.91;33.27;96864.38;5018258;28;20084;-81
2022/06/11 08:57:18;;;;;;;6.18;1.50;;;;;;;29.01;32.98;96864.00;5022300;28;20026;-82
2022/06/11 08:59:55;;;;;;;2.47;1.20;;;;;;;29.90;32.30;96855.97;5013915;28;20054;-81
2022/06/11 09:02:42;;;;;;;5.97;1.48;;;;;;;30.64;32.24;96854.72;5060239;28;20041;-83
2022/06/11 09:05:26;;;;;;;5.05;1.48;;;;;;;30.80;30.75;96847.41;5012383;28;20045;-80
2022/06/11 09:08:11;;;;;;;3.65;1.42;;;;;;;31.02;29.78;96853.34;5017277;28;20422;-82
2022/06/11 09:10:46;;;;;;;3.15;1.23;;;;;;;28.68;32.50;96859.69;5003358;28;20168;-82
2022/06/11 09:13:36;;;;;;;3.85;1.30;;;;;;;28.31;34.79;96851.50;4993950;28;20038;-81
2022/06/11 09:16:12;;;;;;;5.32;1.50;;;;;;;29.72;32.06;96844.56;5028811;28;20041;-81
2022/06/11 09:18:56;;;;;;;4.00;1.73;;;;;;;29.34;32.01;96852.00;5028082;28;20041;-81
2022/06/11 09:21:22;;;;;;;2.95;1.60;;;;;;;29.89;31.26;96848.94;5015760;28;20106;-81
2022/06/11 09:24:11;;;;;;;3.67;1.35;;;;;;;29.52;33.12;96858.81;5007664;28;20114;-81
2022/06/11 09:26:44;;;;;;;3.00;1.35;;;;;;;29.47;30.94;96856.06;5004975;28;20046;-81
2022/06/11 09:29:30;;;;;;;3.65;1.35;;;;;;;31.11;30.14;96851.69;5002494;28;20091;-82
2022/06/11 09:32:28;;;;;;;5.75;1.50;;;;;;;31.45;27.50;96851.88;5006149;28;20426;-82
2022/06/11 09:34:59;;;;;;;3.83;1.40;;;;;;;32.17;27.44;96841.44;4941738;28;20053;-82
2022/06/11 09:37:48;;;;;;;3.17;1.25;;;;;;;30.53;29.79;96860.16;5010819;28;20068;-81
2022/06/11 09:40:41;;;;;;;2.75;1.10;;;;;;;27.94;33.72;96855.75;5005810;28;20022;-81
2022/06/11 09:43:32;;;;;;;2.55;1.23;;;;;;;29.21;33.05;96851.63;5010968;28;20033;-82
2022/06/11 09:46:16;;;;;;;4.63;1.63;;;;;;;29.57;32.48;96850.69;5019834;28;20376;-80
2022/06/11 09:48:47;;;;;;;3.25;1.17;;;;;;;30.63;31.80;96848.47;5033877;28;20042;-80
2022/06/11 09:51:38;;;;;;;3.97;1.50;;;;;;;30.03;29.68;96847.34;5000300;28;20068;-81
2022/06/11 09:54:41;;;;;;;2.42;1.52;;;;;;;29.70;31.58;96845.91;5005359;28;20441;-80
2022/06/11 09:57:31;;;;;;;3.58;1.20;;;;;;;29.36;32.27;96849.81;5002808;28;20030;-83
2022/06/11 10:00:25;;;;;;;3.28;1.30;;;;;;;30.65;30.83;96849.03;5033427;28;20034;-82
2022/06/11 10:03:15;;;;;;;3.22;1.63;;;;;;;28.88;32.78;96854.41;4992607;28;20100;-82
2022/06/11 10:05:49;;;;;;;2.55;1.30;;;;;;;28.47;33.63;96863.28;5020602;28;20144;-82
2022/06/11 10:08:38;;;;;;;3.97;1.45;;;;;;;28.28;34.96;96854.72;5008424;28;20034;-82
2022/06/11 10:11:14;;;;;;;1.88;1.30;;;;;;;27.66;35.18;96854.06;5002036;28;20038;-81
2022/06/11 10:17:10;;;;;;;2.63;1.40;;;;;;;30.39;30.15;96847.41;5004770;28;20053;-81
2022/06/11 10:19:46;;;;;;;2.88;1.38;;;;;;;31.75;29.60;96849.28;5012445;28;20034;-82
2022/06/11 10:22:18;;;;;;;3.55;1.40;;;;;;;31.06;30.49;96849.00;5019915;28;20052;-81
2022/06/11 10:25:19;;;;;;;2.13;1.20;;;;;;;31.47;29.74;96859.75;5010244;28;20041;-82
2022/06/11 10:27:49;;;;;;;6.20;1.42;;;;;;;30.53;29.68;96859.34;5004351;28;20483;-83
2022/06/11 10:30:27;;;;;;;2.97;1.30;;;;;;;30.36;29.56;96856.91;5023052;28;20585;-83
2022/06/11 10:32:55;;;;;;;3.80;1.42;;;;;;;30.06;28.91;96857.66;5017884;28;20042;-81
2022/06/11 10:35:27;;;;;;;1.70;0.90;;;;;;;31.82;29.19;96853.31;5012647;28;20147;-82
2022/06/11 10:38:13;;;;;;;4.37;1.73;;;;;;;28.88;31.64;96864.41;5007398;28;20500;-82
2022/06/11 10:40:44;;;;;;;5.75;1.60;;;;;;;28.17;34.18;96865.44;5038432;28;20030;-83
2022/06/11 10:43:17;;;;;;;3.13;1.40;;;;;;;29.04;32.68;96860.75;5004492;28;20029;-81
2022/06/11 10:45:46;;;;;;;3.65;1.73;;;;;;;30.23;31.19;96860.97;5011715;28;20127;-82
2022/06/11 10:48:21;;;;;;;2.72;1.30;;;;;;;31.22;29.37;96856.03;5023611;28;20388;-82
2022/06/11 10:50:48;;;;;;;7.22;2.10;;;;;;;31.60;30.27;96858.34;5021685;28;20096;-80
2022/06/11 10:53:34;;;;;;;3.00;1.50;;;;;;;31.84;27.48;96847.63;5017477;28;20136;-82
2022/06/11 10:55:59;;;;;;;3.45;1.33;;;;;;;31.89;27.96;96847.59;5031664;28;20034;-82
2022/06/11 10:58:28;;;;;;;2.72;1.60;;;;;;;30.68;29.17;96856.59;5011351;28;20022;-82
2022/06/11 11:01:01;;;;;;;4.25;1.50;;;;;;;32.12;26.57;96849.63;5022869;28;20030;-81
2022/06/11 11:03:57;;;;;;;6.00;1.45;;;;;;;31.73;28.21;96856.94;5022117;28;20034;-82
2022/06/11 11:06:34;;;;;;;4.22;1.40;;;;;;;30.94;27.57;96851.19;5017348;28;20076;-82
2022/06/11 11:09:26;;;;;;;2.72;1.17;;;;;;;31.16;28.25;96840.81;5026898;28;20097;-82
2022/06/11 11:11:58;;;;;;;3.63;1.50;;;;;;;30.84;27.28;96845.78;5034065;28;20065;-82
2022/06/11 11:14:33;;;;;;;2.38;1.20;;;;;;;31.12;27.89;96838.91;5028441;28;20064;-81
2022/06/11 11:17:01;;;;;;;2.25;1.13;;;;;;;32.66;26.48;96837.00;5035664;28;20120;-81
2022/06/11 11:19:31;;;;;;;3.50;1.10;;;;;;;32.58;26.89;96832.97;5035488;28;20048;-82
2022/06/11 11:22:07;;;;;;;4.47;1.42;;;;;;;31.56;27.37;96835.53;5045838;28;20274;-80
2022/06/11 11:24:48;;;;;;;4.45;1.27;;;;;;;31.74;29.31;96832.16;5036102;28;20101;-82
2022/06/11 11:27:25;;;;;;;3.80;1.25;;;;;;;32.34;25.70;96837.53;5025491;28;20045;-82
2022/06/11 11:30:00;;;;;;;2.67;1.20;;;;;;;31.62;27.44;96837.97;5007242;28;20589;-82
2022/06/11 11:32:37;;;;;;;3.22;1.52;;;;;;;31.27;27.06;96838.06;5008290;28;20041;-83
2022/06/11 11:35:26;;;;;;;3.28;1.85;;;;;;;31.47;25.88;96827.13;5018254;28;20063;-82
2022/06/11 11:38:21;;;;;;;3.17;1.25;;;;;;;32.74;26.76;96830.13;5034691;28;20033;-81
2022/06/11 11:40:58;;;;;;;5.03;1.50;;;;;;;31.59;27.80;96824.91;5015210;28;20073;-83
2022/06/11 11:43:34;;;;;;;2.72;1.20;;;;;;;31.67;27.42;96821.59;5024540;28;20506;-82
2022/06/11 11:46:06;;;;;;;2.03;0.93;;;;;;;31.80;26.73;96819.38;5025633;28;20043;-82
2022/06/11 11:48:37;;;;;;;3.17;1.10;;;;;;;31.36;27.25;96825.56;5011053;28;20503;-82
2022/06/11 11:51:10;;;;;;;3.05;1.40;;;;;;;32.55;26.98;96817.22;5010845;28;20034;-82
2022/06/11 11:53:44;;;;;;;3.47;1.48;;;;;;;32.76;26.25;96820.56;5016941;28;20030;-82
2022/06/11 11:56:21;;;;;;;4.53;1.25;;;;;;;33.17;25.37;96813.91;5006774;28;20436;-82